Time;durP1;ratioP1;P1;durP2;ratioP2;P2;SDS_P1;SDS_P2;PMS_P1;PMS_P2;Temp;Humidity;BMP_temperature;BMP_pressure;BME280_temperature;BME280_humidity;BME280_pressure;Samples;Min_cycle;Max_cycle;Signal;HPM_P1;HPM_P2
2021/11/21 00:01:36;;;;;;;12.43;3.85;;;;;;;8.63;87.42;101576.84;5013442;28;20057;-75
2021/11/21 00:04:01;;;;;;;10.93;3.95;;;;;;;8.64;87.51;101578.53;5014559;28;20040;-74
2021/11/21 00:06:27;;;;;;;9.25;3.97;;;;;;;8.62;88.15;101574.31;5014177;28;20041;-75
2021/11/21 00:08:52;;;;;;;6.97;3.97;;;;;;;8.58;88.32;101572.81;5014706;28;20030;-75
2021/11/21 00:11:18;;;;;;;9.23;4.10;;;;;;;8.53;89.30;101570.47;5013179;28;20045;-75
2021/11/21 00:13:45;;;;;;;7.65;3.78;;;;;;;8.49;89.57;101574.31;5014766;28;20125;-76
2021/11/21 00:16:10;;;;;;;9.50;3.35;;;;;;;8.53;89.62;101569.66;5013828;28;20048;-75
2021/11/21 00:18:36;;;;;;;11.18;3.70;;;;;;;8.60;89.15;101568.25;5014494;28;20034;-74
2021/11/21 00:21:01;;;;;;;8.50;3.95;;;;;;;8.61;89.56;101562.84;5014421;28;20049;-75
2021/11/21 00:23:27;;;;;;;10.50;3.50;;;;;;;8.58;90.10;101548.94;5013940;28;20064;-75
2021/11/21 00:25:52;;;;;;;9.52;3.40;;;;;;;8.58;90.61;101554.25;5014014;28;20074;-74
2021/11/21 00:28:18;;;;;;;8.20;3.50;;;;;;;8.62;90.56;101556.56;5013718;28;20533;-75
2021/11/21 00:30:43;;;;;;;8.02;3.33;;;;;;;8.64;90.79;101557.31;5014238;28;20038;-75
2021/11/21 00:33:09;;;;;;;8.60;3.42;;;;;;;8.63;92.19;101557.44;5014477;28;20037;-75
2021/11/21 00:35:34;;;;;;;12.07;3.90;;;;;;;8.55;93.39;101547.34;5014051;28;20501;-76
2021/11/21 00:38:00;;;;;;;10.45;3.78;;;;;;;8.50;94.33;101553.94;5012893;28;20038;-75
2021/11/21 00:40:26;;;;;;;11.73;3.63;;;;;;;8.46;95.19;101550.66;5013845;28;20050;-74
2021/11/21 00:42:52;;;;;;;16.67;4.25;;;;;;;8.43;96.55;101556.13;5013704;28;20453;-75
2021/11/21 00:45:18;;;;;;;8.50;4.53;;;;;;;8.43;97.28;101553.47;5013513;28;20034;-73
2021/11/21 00:47:43;;;;;;;14.43;4.00;;;;;;;8.44;97.67;101544.63;5013830;28;20393;-75
2021/11/21 00:50:12;;;;;;;15.57;4.03;;;;;;;8.45;97.73;101546.31;5013761;28;20481;-75
2021/11/21 00:52:38;;;;;;;17.08;4.43;;;;;;;8.44;98.01;101556.06;5013071;28;20045;-74
2021/11/21 00:55:11;;;;;;;19.80;4.65;;;;;;;8.43;97.97;101551.69;5013463;28;20121;-74
2021/11/21 00:57:38;;;;;;;8.05;3.92;;;;;;;8.44;97.85;101550.75;5013305;28;20329;-74
2021/11/21 01:00:07;;;;;;;8.35;3.42;;;;;;;8.46;97.67;101545.34;5013773;28;20175;-74
2021/11/21 01:02:33;;;;;;;18.02;4.35;;;;;;;8.45;97.90;101541.84;5012941;28;20497;-74
2021/11/21 01:04:59;;;;;;;18.42;4.30;;;;;;;8.48;98.03;101543.44;5013283;28;20041;-74
2021/11/21 01:07:25;;;;;;;11.32;4.38;;;;;;;8.50;98.14;101532.72;5011659;28;20433;-75
2021/11/21 01:09:50;;;;;;;17.00;4.22;;;;;;;8.49;98.42;101526.56;5013312;28;20040;-74
2021/11/21 01:12:16;;;;;;;14.15;4.55;;;;;;;8.46;98.70;101526.78;4995678;28;20037;-74
2021/11/21 01:14:41;;;;;;;16.33;4.80;;;;;;;8.46;99.18;101535.59;5027860;22;20086;-73
2021/11/21 01:17:07;;;;;;;16.45;4.70;;;;;;;8.44;99.27;101526.88;5011588;28;20034;-73
2021/11/21 01:19:33;;;;;;;12.73;4.57;;;;;;;8.39;99.94;101528.13;5012548;28;20466;-74
2021/11/21 01:21:59;;;;;;;15.52;5.40;;;;;;;8.35;100.00;101524.03;5013093;28;20022;-74
2021/11/21 01:24:25;;;;;;;12.70;5.40;;;;;;;8.31;100.00;101518.06;5012883;28;20461;-74
2021/11/21 01:26:51;;;;;;;12.13;5.05;;;;;;;8.27;100.00;101517.44;5013274;28;20029;-73
2021/11/21 01:29:16;;;;;;;11.57;4.65;;;;;;;8.25;100.00;101513.19;5013347;28;20485;-73
2021/11/21 01:31:42;;;;;;;11.05;4.97;;;;;;;8.23;100.00;101513.31;5012729;28;20038;-73
2021/11/21 01:34:09;;;;;;;13.32;5.30;;;;;;;8.22;100.00;101508.13;5012890;28;20058;-74
2021/11/21 01:36:34;;;;;;;12.68;5.75;;;;;;;8.19;100.00;101508.34;5011175;28;20030;-74
2021/11/21 01:38:59;;;;;;;15.40;6.25;;;;;;;8.19;100.00;101510.97;5012386;28;20081;-73
2021/11/21 01:41:25;;;;;;;14.45;6.30;;;;;;;8.16;100.00;101506.72;5012297;28;20033;-74
2021/11/21 01:43:50;;;;;;;12.57;6.38;;;;;;;8.15;100.00;101505.06;5012975;28;20030;-74
2021/11/21 01:46:16;;;;;;;11.27;5.90;;;;;;;8.15;100.00;101496.25;5012794;28;20045;-74
2021/11/21 01:48:41;;;;;;;15.98;6.95;;;;;;;8.13;100.00;101488.41;5012427;28;20034;-74
2021/11/21 01:51:08;;;;;;;17.33;7.40;;;;;;;8.17;100.00;101497.84;5012926;28;20486;-74
2021/11/21 01:53:35;;;;;;;13.80;7.55;;;;;;;8.19;100.00;101495.06;5012290;28;20126;-75
2021/11/21 01:56:00;;;;;;;14.65;7.07;;;;;;;8.20;100.00;101494.97;5012531;28;20421;-74
2021/11/21 01:58:26;;;;;;;17.23;7.32;;;;;;;8.18;100.00;101483.63;5012475;28;20048;-75
2021/11/21 02:00:53;;;;;;;14.48;7.40;;;;;;;8.19;100.00;101485.31;4995008;28;20509;-75
2021/11/21 02:03:19;;;;;;;20.02;7.18;;;;;;;8.19;100.00;101485.31;5012753;28;20117;-74
2021/11/21 02:05:50;;;;;;;14.45;7.45;;;;;;;8.24;100.00;101477.91;5012167;28;20137;-75
2021/11/21 02:08:16;;;;;;;;;;;;;;;8.25;100.00;101481.38;5013041;28;20038;-75
2021/11/21 02:10:41;;;;;;;18.38;7.60;;;;;;;8.25;100.00;101474.28;5012047;28;19920;-75
2021/11/21 02:13:09;;;;;;;16.05;8.00;;;;;;;8.28;100.00;101471.44;5012501;28;20058;-75
2021/11/21 02:15:36;;;;;;;16.70;8.35;;;;;;;8.28;100.00;101466.13;5012094;28;20061;-74
2021/11/21 02:18:02;;;;;;;12.18;7.18;;;;;;;8.29;100.00;101462.50;5012560;28;20034;-74
2021/11/21 02:20:33;;;;;;;10.52;6.50;;;;;;;8.28;100.00;101462.59;5012502;28;20034;-74
2021/11/21 02:23:00;;;;;;;11.77;5.70;;;;;;;8.31;100.00;101457.09;5012470;28;20034;-74
2021/11/21 02:25:25;;;;;;;6.53;5.20;;;;;;;8.36;100.00;101454.09;5012610;28;20041;-75
2021/11/21 02:27:51;;;;;;;9.73;5.53;;;;;;;8.37;100.00;101447.84;5011955;28;20029;-74
2021/11/21 02:30:16;;;;;;;9.85;5.00;;;;;;;8.37;100.00;101440.72;5012342;28;20034;-74
2021/11/21 02:32:47;;;;;;;8.82;4.95;;;;;;;8.37;100.00;101440.72;5011770;28;20041;-74
2021/11/21 02:35:13;;;;;;;13.63;5.38;;;;;;;8.38;100.00;101431.00;5012301;28;20030;-74
2021/11/21 02:37:38;;;;;;;12.75;4.95;;;;;;;8.39;100.00;101435.31;5011768;28;20029;-74
2021/11/21 02:40:04;;;;;;;10.18;5.30;;;;;;;8.40;100.00;101432.56;5012457;28;20037;-74
2021/11/21 02:42:31;;;;;;;9.50;5.20;;;;;;;8.42;100.00;101435.09;5012501;28;20112;-75
2021/11/21 02:44:57;;;;;;;13.50;5.18;;;;;;;8.42;100.00;101429.78;5012286;28;20088;-74
2021/11/21 02:47:23;;;;;;;18.63;5.85;;;;;;;8.40;100.00;101424.59;5012309;28;20425;-74
2021/11/21 02:49:48;;;;;;;15.38;5.78;;;;;;;8.38;100.00;101415.91;5013887;28;20389;-75
2021/11/21 02:52:14;;;;;;;18.83;5.32;;;;;;;8.37;100.00;101408.91;5015853;28;20037;-74
2021/11/21 02:54:49;;;;;;;17.23;4.93;;;;;;;8.37;100.00;101411.56;5014227;28;20042;-75
2021/11/21 02:57:14;;;;;;;20.45;4.90;;;;;;;8.40;100.00;101415.81;5015946;28;20026;-74
2021/11/21 02:59:39;;;;;;;13.95;4.07;;;;;;;8.41;100.00;101414.84;5015211;28;20080;-74
2021/11/21 03:02:05;;;;;;;16.55;4.93;;;;;;;8.39;100.00;101409.66;5015740;28;20601;-74
2021/11/21 03:04:30;;;;;;;20.33;4.63;;;;;;;8.39;100.00;101414.97;5015503;28;20030;-74
2021/11/21 03:06:55;;;;;;;13.85;3.97;;;;;;;8.37;100.00;101410.72;5013899;28;20120;-75
2021/11/21 03:09:22;;;;;;;11.05;3.30;;;;;;;8.36;100.00;101416.97;5015596;28;20042;-74
2021/11/21 03:11:48;;;;;;;15.40;3.05;;;;;;;8.33;100.00;101410.13;5015211;28;20065;-74
2021/11/21 03:14:13;;;;;;;6.20;2.10;;;;;;;8.28;100.00;101414.88;5015667;28;20128;-75
2021/11/21 03:16:39;;;;;;;14.13;2.10;;;;;;;8.25;100.00;101412.44;5013487;28;20050;-75
2021/11/21 03:19:04;;;;;;;8.77;1.60;;;;;;;8.20;100.00;101407.47;5015684;28;20065;-74
2021/11/21 03:21:29;;;;;;;9.98;1.65;;;;;;;8.15;100.00;101404.34;5015353;28;20026;-74
2021/11/21 03:23:55;;;;;;;8.38;1.48;;;;;;;8.09;100.00;101405.59;5014763;28;20037;-74
2021/11/21 03:26:21;;;;;;;11.05;1.30;;;;;;;8.04;100.00;101397.13;5015441;28;20056;-74
2021/11/21 03:28:48;;;;;;;15.57;1.80;;;;;;;8.02;100.00;101398.22;5014824;28;20121;-75
2021/11/21 03:31:14;;;;;;;12.45;1.60;;;;;;;7.99;100.00;101399.25;5015347;28;20058;-74
2021/11/21 03:33:39;;;;;;;14.13;1.80;;;;;;;7.97;100.00;101406.44;5014767;28;20072;-75
2021/11/21 03:36:05;;;;;;;18.40;1.90;;;;;;;7.94;100.00;101404.88;5013582;28;20030;-75
2021/11/21 03:38:30;;;;;;;12.70;1.42;;;;;;;7.92;100.00;101405.94;5015197;28;20041;-74
2021/11/21 03:40:56;;;;;;;8.80;1.55;;;;;;;7.89;100.00;101409.66;5014547;28;20038;-74
2021/11/21 03:43:21;;;;;;;12.00;1.38;;;;;;;7.85;100.00;101402.03;5014958;28;20034;-75
2021/11/21 03:45:47;;;;;;;13.88;1.83;;;;;;;7.80;100.00;101406.81;5014781;28;20065;-75
2021/11/21 03:48:12;;;;;;;13.20;1.80;;;;;;;7.76;100.00;101412.31;5014788;28;20526;-76
2021/11/21 03:50:38;;;;;;;12.55;1.20;;;;;;;7.71;100.00;101406.47;5013405;28;20084;-77
2021/11/21 03:53:03;;;;;;;11.10;1.33;;;;;;;7.68;100.00;101403.22;5014221;28;20509;-77
2021/11/21 03:55:28;;;;;;;12.23;1.90;;;;;;;7.65;100.00;101414.84;5014886;28;20034;-77
2021/11/21 03:57:54;;;;;;;10.93;1.48;;;;;;;7.64;100.00;101407.84;5014124;28;20463;-77
2021/11/21 04:00:24;;;;;;;14.32;1.45;;;;;;;7.61;100.00;101401.94;5014215;28;20070;-76
2021/11/21 04:02:49;;;;;;;16.52;1.63;;;;;;;7.60;100.00;101406.41;5014054;28;20030;-76
2021/11/21 04:05:17;;;;;;;15.27;1.40;;;;;;;7.59;100.00;101405.53;5014376;28;20121;-76
2021/11/21 04:07:43;;;;;;;24.00;2.17;;;;;;;7.57;100.00;101404.78;5014299;28;20088;-76
2021/11/21 04:10:10;;;;;;;11.20;1.45;;;;;;;7.57;100.00;101403.97;5014407;28;20034;-75
2021/11/21 04:12:35;;;;;;;10.32;1.23;;;;;;;7.53;100.00;101407.75;5014435;28;20036;-75
2021/11/21 04:15:02;;;;;;;20.58;1.90;;;;;;;7.51;100.00;101407.88;5013577;28;20030;-75
2021/11/21 04:17:28;;;;;;;11.20;1.38;;;;;;;7.52;100.00;101411.34;5014325;28;20042;-75
2021/11/21 04:19:54;;;;;;;11.20;1.67;;;;;;;7.48;100.00;101408.09;5012464;28;20034;-75
2021/11/21 04:22:20;;;;;;;12.38;1.58;;;;;;;7.45;100.00;101403.00;5014232;28;20447;-75
2021/11/21 04:24:46;;;;;;;12.00;1.80;;;;;;;7.44;100.00;101406.59;5012590;28;20034;-77
2021/11/21 04:27:11;;;;;;;17.33;1.48;;;;;;;7.41;100.00;101406.81;5013532;28;20390;-74
2021/11/21 04:29:36;;;;;;;8.27;1.35;;;;;;;7.39;100.00;101412.19;5014223;28;20026;-74
2021/11/21 04:32:02;;;;;;;9.73;1.35;;;;;;;7.35;100.00;101409.88;5013793;28;20038;-75
2021/11/21 04:34:28;;;;;;;16.40;1.70;;;;;;;7.31;100.00;101414.50;5014055;28;20068;-74
2021/11/21 04:36:55;;;;;;;14.50;1.63;;;;;;;7.28;100.00;101405.94;5013357;28;20061;-74
2021/11/21 04:39:22;;;;;;;9.80;1.13;;;;;;;7.24;100.00;101407.97;5014011;28;20055;-77
2021/11/21 04:41:47;;;;;;;14.88;1.58;;;;;;;7.20;100.00;101411.75;5013321;28;20034;-76
2021/11/21 04:44:13;;;;;;;14.45;1.50;;;;;;;7.15;100.00;101416.50;5013845;28;20032;-75
2021/11/21 04:46:38;;;;;;;15.23;1.90;;;;;;;7.15;100.00;101411.19;5013720;28;20038;-74
2021/11/21 04:49:04;;;;;;;9.80;1.50;;;;;;;7.12;100.00;101406.97;5013116;28;20034;-75
2021/11/21 04:51:30;;;;;;;17.13;1.75;;;;;;;7.11;100.00;101407.91;5013822;28;20105;-74
2021/11/21 04:53:56;;;;;;;20.25;1.55;;;;;;;7.11;100.00;101413.22;5013275;28;20037;-74
2021/11/21 04:56:23;;;;;;;15.68;1.55;;;;;;;7.10;100.00;101408.88;5013389;28;20034;-74
2021/11/21 04:58:48;;;;;;;15.18;1.65;;;;;;;7.09;100.00;101409.84;5013893;28;20034;-74
2021/11/21 05:01:14;;;;;;;22.20;2.05;;;;;;;7.10;100.00;101413.31;5013035;28;20453;-76
2021/11/21 05:03:39;;;;;;;14.90;1.60;;;;;;;7.06;100.00;101399.44;5013383;28;20034;-75
2021/11/21 05:06:05;;;;;;;12.38;1.50;;;;;;;7.03;100.00;101400.50;5013164;28;20467;-74
2021/11/21 05:08:30;;;;;;;21.23;2.03;;;;;;;6.99;100.00;101403.47;5013357;28;20037;-74
2021/11/21 05:10:55;;;;;;;16.30;1.83;;;;;;;6.97;100.00;101410.63;5011716;28;20065;-75
2021/11/21 05:13:21;;;;;;;14.77;1.92;;;;;;;6.94;100.00;101409.06;5012471;28;20034;-75
2021/11/21 05:15:46;;;;;;;18.92;2.10;;;;;;;6.92;100.00;101410.09;5013096;28;20085;-74
2021/11/21 05:18:11;;;;;;;15.05;1.90;;;;;;;6.86;100.00;101403.41;5012692;28;20045;-75
2021/11/21 05:20:37;;;;;;;24.33;2.50;;;;;;;6.80;100.00;101407.31;5013179;28;20041;-75
2021/11/21 05:23:02;;;;;;;24.70;2.72;;;;;;;6.77;100.00;101406.66;5012733;28;20030;-74
2021/11/21 05:25:28;;;;;;;17.63;2.13;;;;;;;6.73;100.00;101415.75;5013405;28;20034;-74
2021/11/21 05:27:53;;;;;;;13.45;2.10;;;;;;;6.68;100.00;101403.66;5012697;28;20155;-75
2021/11/21 05:30:22;;;;;;;16.33;1.90;;;;;;;6.65;100.00;101403.84;5013005;28;20034;-75
2021/11/21 05:32:48;;;;;;;14.82;1.88;;;;;;;6.61;100.00;101402.34;5012786;28;20060;-74
2021/11/21 05:35:14;;;;;;;19.98;1.98;;;;;;;6.55;100.00;101399.28;5012254;28;20462;-75
2021/11/21 05:37:40;;;;;;;18.35;2.00;;;;;;;6.52;100.00;101401.19;5012995;28;20386;-75
2021/11/21 05:40:09;;;;;;;14.60;2.08;;;;;;;6.48;100.00;101398.84;5012551;28;20052;-75
2021/11/21 05:42:35;;;;;;;18.70;1.73;;;;;;;6.42;100.00;101400.06;5011643;28;20038;-74
2021/11/21 05:45:00;;;;;;;15.77;2.15;;;;;;;6.41;100.00;101397.53;5011143;28;20026;-76
2021/11/21 05:47:26;;;;;;;14.95;1.52;;;;;;;6.37;100.00;101403.94;5012609;28;20030;-74
2021/11/21 05:49:51;;;;;;;19.88;2.38;;;;;;;6.33;100.00;101398.03;5012939;28;20481;-74
2021/11/21 05:52:17;;;;;;;17.67;2.17;;;;;;;6.29;100.00;101404.44;5011164;28;20062;-75
2021/11/21 05:54:43;;;;;;;21.50;2.13;;;;;;;6.24;100.00;101404.75;5012811;28;20041;-75
2021/11/21 05:57:09;;;;;;;12.57;1.42;;;;;;;6.23;100.00;101396.91;5010953;28;20390;-75
2021/11/21 05:59:37;;;;;;;13.07;1.80;;;;;;;6.22;100.00;101397.84;5011547;28;20038;-75
2021/11/21 06:02:03;;;;;;;18.48;1.73;;;;;;;6.21;100.00;101397.00;5012151;28;20113;-75
2021/11/21 06:04:28;;;;;;;10.85;1.70;;;;;;;6.23;100.00;101402.19;5012698;28;20463;-75
2021/11/21 06:06:53;;;;;;;13.82;1.88;;;;;;;6.26;100.00;101402.84;5012995;28;20034;-75
2021/11/21 06:09:19;;;;;;;9.43;1.52;;;;;;;6.33;100.00;101400.66;5012554;28;20482;-74
2021/11/21 06:11:44;;;;;;;13.07;1.50;;;;;;;6.37;99.37;101409.25;5012445;28;20450;-75
2021/11/21 06:14:10;;;;;;;10.93;1.42;;;;;;;6.39;98.59;101412.63;5010919;28;20034;-75
2021/11/21 06:16:35;;;;;;;10.23;1.67;;;;;;;6.40;99.42;101411.69;5011041;28;20100;-75
2021/11/21 06:19:01;;;;;;;14.70;1.35;;;;;;;6.38;99.90;101422.34;5012330;28;20040;-75
2021/11/21 06:21:26;;;;;;;8.68;1.42;;;;;;;6.36;100.00;101413.69;5012651;28;20037;-75
2021/11/21 06:23:52;;;;;;;11.10;1.48;;;;;;;6.32;100.00;101410.38;5013255;28;20034;-75
2021/11/21 06:26:19;;;;;;;11.02;1.80;;;;;;;6.28;99.53;101408.88;5015951;28;20066;-75
2021/11/21 06:28:44;;;;;;;8.98;1.60;;;;;;;6.24;99.79;101406.50;5016342;28;20045;-75
2021/11/21 06:31:10;;;;;;;10.48;1.80;;;;;;;6.16;99.79;101407.00;5015729;28;20042;-75
2021/11/21 06:33:35;;;;;;;10.15;1.70;;;;;;;6.13;99.98;101407.19;5016316;28;20040;-75
2021/11/21 06:36:02;;;;;;;13.32;1.92;;;;;;;6.07;99.84;101403.13;5016269;28;20470;-75
2021/11/21 06:38:29;;;;;;;12.30;1.83;;;;;;;6.04;100.00;101399.84;5015988;28;20034;-74
2021/11/21 06:40:54;;;;;;;12.25;1.58;;;;;;;5.99;99.80;101408.06;5016189;28;20030;-74
2021/11/21 06:43:20;;;;;;;16.55;2.20;;;;;;;5.94;99.88;101410.97;5015596;28;20034;-76
2021/11/21 06:45:45;;;;;;;15.93;1.77;;;;;;;5.93;100.00;101411.91;5015897;28;20040;-74
2021/11/21 06:48:12;;;;;;;14.00;1.60;;;;;;;5.89;100.00;101410.38;5015539;28;20457;-75
2021/11/21 06:50:38;;;;;;;15.80;1.70;;;;;;;5.84;100.00;101401.91;5016094;28;20034;-75
2021/11/21 06:53:04;;;;;;;16.92;2.28;;;;;;;5.82;100.00;101403.78;5015944;28;20072;-74
2021/11/21 06:55:30;;;;;;;11.40;1.45;;;;;;;5.78;100.00;101397.84;5015700;28;20449;-74
2021/11/21 06:57:55;;;;;;;12.68;1.65;;;;;;;5.74;99.85;101406.06;5015929;28;20041;-74
2021/11/21 07:00:21;;;;;;;8.77;1.20;;;;;;;5.73;99.15;101410.50;5015338;28;20425;-74
2021/11/21 07:02:46;;;;;;;7.40;1.35;;;;;;;5.77;98.25;101413.78;5015915;28;20026;-74
2021/11/21 07:05:12;;;;;;;8.82;1.30;;;;;;;5.83;98.13;101408.13;5015640;28;20145;-75
2021/11/21 07:07:37;;;;;;;15.65;2.08;;;;;;;5.90;96.87;101417.38;5016199;28;20034;-75
2021/11/21 07:10:05;;;;;;;12.88;2.08;;;;;;;5.94;96.23;101418.88;5014406;28;20423;-75
2021/11/21 07:12:31;;;;;;;15.65;2.25;;;;;;;5.96;96.13;101421.44;5014994;28;20040;-75
2021/11/21 07:14:57;;;;;;;7.15;1.50;;;;;;;5.94;95.94;101429.47;5015108;28;20034;-74
2021/11/21 07:17:23;;;;;;;9.50;1.60;;;;;;;5.87;94.81;101425.50;5015323;28;20451;-74
2021/11/21 07:19:48;;;;;;;12.20;1.50;;;;;;;5.81;94.89;101432.00;5014218;28;20529;-75
2021/11/21 07:22:13;;;;;;;6.28;1.25;;;;;;;5.74;96.42;101428.03;5015042;28;20022;-75
2021/11/21 07:24:39;;;;;;;13.25;2.08;;;;;;;5.67;96.73;101436.41;5014039;28;20076;-73
2021/11/21 07:27:04;;;;;;;13.48;1.70;;;;;;;5.60;96.97;101435.94;5015207;28;20053;-75
2021/11/21 07:29:30;;;;;;;12.82;1.60;;;;;;;5.59;97.10;101444.78;5013246;28;20061;-74
2021/11/21 07:31:58;;;;;;;16.35;2.38;;;;;;;5.64;97.26;101450.63;5013900;28;20087;-73
2021/11/21 07:34:24;;;;;;;17.27;2.97;;;;;;;5.78;97.10;101453.31;5014678;28;20486;-74
2021/11/21 07:36:49;;;;;;;14.20;1.92;;;;;;;5.86;96.94;101454.63;5014114;28;20037;-74
2021/11/21 07:39:14;;;;;;;15.30;2.40;;;;;;;5.91;97.06;101449.91;5014481;28;20026;-75
2021/11/21 07:41:40;;;;;;;10.27;2.13;;;;;;;5.96;96.71;101453.97;5015031;28;20034;-74
2021/11/21 07:44:07;;;;;;;18.17;1.67;;;;;;;5.98;95.90;101457.38;5013624;28;20069;-75
2021/11/21 07:46:32;;;;;;;10.77;2.10;;;;;;;5.90;95.55;101454.34;5014385;28;20505;-74
2021/11/21 07:48:58;;;;;;;16.85;1.90;;;;;;;5.81;95.95;101453.13;5014068;28;20041;-73
2021/11/21 07:51:23;;;;;;;17.17;2.17;;;;;;;5.75;96.08;101448.22;5014480;28;20471;-72
2021/11/21 07:53:49;;;;;;;22.67;2.08;;;;;;;5.71;96.42;101451.97;5014800;28;20026;-75
2021/11/21 07:56:14;;;;;;;13.60;2.13;;;;;;;5.71;96.60;101454.63;4996519;28;20033;-73
2021/11/21 07:59:10;;;;;;;11.80;2.10;;;;;;;5.75;96.51;101457.94;5014720;28;20030;-78
2021/11/21 08:01:36;;;;;;;23.92;2.70;;;;;;;5.76;96.88;101451.69;5013515;28;20026;-76
2021/11/21 08:04:01;;;;;;;15.55;2.17;;;;;;;5.74;97.05;101461.50;5014292;28;20117;-77
2021/11/21 08:06:27;;;;;;;23.48;2.67;;;;;;;5.69;96.62;101464.44;5012604;28;20042;-75
2021/11/21 08:08:52;;;;;;;12.02;1.92;;;;;;;5.66;95.89;101459.34;5012883;28;20112;-75
2021/11/21 08:11:18;;;;;;;12.85;2.13;;;;;;;5.63;96.30;101467.44;5013660;28;20034;-74
2021/11/21 08:13:43;;;;;;;19.73;2.30;;;;;;;5.58;96.27;101470.34;5014964;28;20495;-74
2021/11/21 08:16:08;;;;;;;24.52;2.33;;;;;;;5.60;95.45;101475.53;5012596;28;20195;-75
2021/11/21 08:18:34;;;;;;;18.17;2.75;;;;;;;5.71;94.89;101464.34;5013551;28;20069;-75
2021/11/21 08:20:59;;;;;;;13.75;2.15;;;;;;;5.85;94.22;101468.78;5014143;28;20034;-74
2021/11/21 08:23:25;;;;;;;10.93;2.10;;;;;;;5.94;92.64;101463.78;5013618;28;20544;-74
2021/11/21 08:25:51;;;;;;;16.40;2.47;;;;;;;6.00;92.60;101463.44;5014074;28;20077;-75
2021/11/21 08:28:16;;;;;;;18.35;2.22;;;;;;;6.09;92.41;101469.97;5012890;28;20037;-74
2021/11/21 08:30:42;;;;;;;20.48;2.95;;;;;;;6.22;91.07;101472.69;4996084;28;20030;-75
2021/11/21 08:33:10;;;;;;;14.63;1.73;;;;;;;6.25;89.80;101472.47;5012884;28;20484;-76
2021/11/21 08:35:37;;;;;;;10.57;1.77;;;;;;;6.27;89.71;101475.03;5013371;28;20030;-73
2021/11/21 08:38:03;;;;;;;12.35;1.80;;;;;;;6.31;87.16;101465.97;5013879;28;20029;-73
2021/11/21 08:40:30;;;;;;;15.70;2.22;;;;;;;6.42;86.44;101483.78;5013235;28;20049;-74
2021/11/21 08:42:57;;;;;;;10.13;1.80;;;;;;;6.50;86.72;101479.72;5013781;28;20030;-73
2021/11/21 08:45:23;;;;;;;14.90;2.55;;;;;;;6.64;88.30;101476.22;5013327;28;20032;-75
2021/11/21 08:47:48;;;;;;;10.40;2.03;;;;;;;6.73;86.21;101480.06;5013790;28;20026;-75
2021/11/21 08:50:14;;;;;;;13.20;2.00;;;;;;;6.81;85.59;101477.78;5013646;28;20042;-73
2021/11/21 08:52:39;;;;;;;14.27;2.28;;;;;;;6.78;85.53;101469.22;5013158;28;20116;-74
2021/11/21 08:55:05;;;;;;;14.43;1.63;;;;;;;6.74;85.93;101480.91;5008795;28;20068;-74
2021/11/21 08:57:31;;;;;;;9.68;1.60;;;;;;;6.67;85.32;101486.59;4990824;28;20042;-75
2021/11/21 08:59:56;;;;;;;8.02;1.55;;;;;;;6.66;85.05;101474.31;4991036;28;20232;-75
2021/11/21 09:02:22;;;;;;;13.85;1.85;;;;;;;6.64;85.87;101478.00;4990785;28;20169;-75
2021/11/21 09:04:47;;;;;;;12.23;1.35;;;;;;;6.59;85.80;101483.59;4991227;28;20494;-74
2021/11/21 09:07:13;;;;;;;9.45;2.00;;;;;;;6.62;84.93;101483.41;4989440;28;20083;-74
2021/11/21 09:09:38;;;;;;;5.65;1.25;;;;;;;6.70;84.76;101482.91;4990365;28;20087;-73
2021/11/21 09:12:04;;;;;;;8.35;1.20;;;;;;;6.85;85.34;101487.22;5006022;28;20057;-74
2021/11/21 09:14:30;;;;;;;10.07;2.72;;;;;;;7.11;84.19;101475.91;4972934;28;20398;-74
2021/11/21 09:16:55;;;;;;;14.07;3.47;;;;;;;7.36;83.29;101475.94;4990613;28;20066;-75
2021/11/21 09:19:21;;;;;;;16.38;2.72;;;;;;;7.51;81.23;101484.66;4989132;28;20046;-73
2021/11/21 09:21:46;;;;;;;10.55;1.88;;;;;;;7.47;82.38;101479.69;4989098;28;20563;-73
2021/11/21 09:24:12;;;;;;;13.15;1.92;;;;;;;7.44;83.65;101487.84;4990462;28;20047;-75
2021/11/21 09:26:37;;;;;;;6.07;1.50;;;;;;;7.42;84.41;101466.75;4989161;28;20034;-73
2021/11/21 09:29:04;;;;;;;17.20;2.08;;;;;;;7.49;83.71;101477.78;4990917;28;20023;-75
2021/11/21 09:31:29;;;;;;;19.90;2.08;;;;;;;7.56;84.14;101484.34;4989848;28;20521;-74
2021/11/21 09:33:55;;;;;;;14.73;1.80;;;;;;;7.64;82.31;101486.47;4989147;28;20038;-73
2021/11/21 09:36:21;;;;;;;9.13;1.75;;;;;;;7.69;81.23;101484.38;4989000;28;20034;-75
2021/11/21 09:38:47;;;;;;;14.88;1.67;;;;;;;7.75;81.25;101483.97;4989946;28;20668;-76
2021/11/21 09:41:13;;;;;;;7.45;1.75;;;;;;;7.76;80.21;101491.81;4990208;28;20046;-74
2021/11/21 09:43:40;;;;;;;9.85;1.27;;;;;;;7.75;80.03;101481.31;4988612;28;20494;-74
2021/11/21 09:46:07;;;;;;;6.75;1.27;;;;;;;7.74;79.00;101483.09;4990494;28;20493;-74
2021/11/21 09:48:33;;;;;;;5.45;1.25;;;;;;;7.76;78.83;101491.81;4989960;28;20034;-73
2021/11/21 09:51:00;;;;;;;9.35;1.13;;;;;;;7.84;78.13;101488.63;4990385;28;20105;-73
2021/11/21 09:53:25;;;;;;;5.43;1.20;;;;;;;7.88;78.39;101490.13;4990190;28;20180;-74
2021/11/21 09:55:51;;;;;;;10.38;1.35;;;;;;;7.93;78.18;101495.94;4988283;28;20546;-74
2021/11/21 09:58:16;;;;;;;6.07;1.38;;;;;;;7.98;78.23;101489.47;4990225;28;20038;-74
2021/11/21 10:00:42;;;;;;;6.22;1.30;;;;;;;8.04;77.64;101494.34;4989736;28;20413;-74
2021/11/21 10:03:12;;;;;;;8.27;1.98;;;;;;;8.07;78.52;101494.13;4990208;28;20451;-74
2021/11/21 10:05:46;;;;;;;6.55;1.75;;;;;;;8.09;78.87;101493.06;4989814;28;20061;-74
2021/11/21 10:08:17;;;;;;;11.13;2.30;;;;;;;8.15;80.03;101497.09;4988540;28;20109;-74
2021/11/21 10:10:54;;;;;;;13.33;1.97;;;;;;;8.28;80.22;101499.72;4989957;28;20062;-75
2021/11/21 10:13:41;;;;;;;7.82;1.40;;;;;;;8.36;78.90;101509.78;4989027;28;20022;-74
2021/11/21 10:16:19;;;;;;;11.10;2.45;;;;;;;8.38;73.04;101505.25;4990104;28;20082;-74
2021/11/21 10:18:44;;;;;;;9.18;2.20;;;;;;;8.33;75.28;101497.63;4989496;28;20073;-76
2021/11/21 10:21:09;;;;;;;5.75;1.00;;;;;;;8.35;75.24;101505.47;4990032;28;20058;-74
2021/11/21 10:23:35;;;;;;;13.82;1.85;;;;;;;8.41;76.81;101510.31;4989612;28;20117;-76
2021/11/21 10:26:00;;;;;;;12.85;1.40;;;;;;;8.40;76.23;101512.09;4990408;28;20043;-75
2021/11/21 10:28:32;;;;;;;8.30;1.13;;;;;;;8.40;75.10;101506.81;4989131;28;20118;-75
2021/11/21 10:31:00;;;;;;;5.32;1.08;;;;;;;8.34;70.75;101506.41;4989324;28;20026;-74
2021/11/21 10:33:47;;;;;;;5.18;0.98;;;;;;;8.29;72.35;101490.81;4990312;28;20035;-74
2021/11/21 10:36:17;;;;;;;3.13;0.90;;;;;;;8.30;72.80;101496.03;4985843;28;20046;-74
2021/11/21 10:38:46;;;;;;;3.85;1.10;;;;;;;8.45;70.58;101498.59;4989610;28;20416;-74
2021/11/21 10:41:16;;;;;;;5.35;0.93;;;;;;;8.71;70.51;101499.34;4988761;28;20077;-74
2021/11/21 10:43:44;;;;;;;4.47;1.27;;;;;;;9.08;70.53;101501.16;4989121;28;20027;-76
2021/11/21 10:46:25;;;;;;;6.88;0.68;;;;;;;9.37;70.31;101498.13;4989844;28;20034;-75
2021/11/21 10:48:50;;;;;;;4.47;0.80;;;;;;;9.49;69.30;101495.41;4989640;28;20058;-75
2021/11/21 10:51:24;;;;;;;6.93;1.00;;;;;;;9.56;70.11;101497.59;4989795;28;20069;-73
2021/11/21 10:53:50;;;;;;;7.65;1.15;;;;;;;9.59;70.29;101486.72;4988118;28;20069;-75
2021/11/21 10:56:15;;;;;;;8.73;1.50;;;;;;;9.67;71.22;101494.94;4989652;28;20045;-76
2021/11/21 10:58:47;;;;;;;9.43;1.33;;;;;;;9.87;70.09;101498.75;4989867;28;20038;-76
2021/11/21 11:01:25;;;;;;;7.22;1.50;;;;;;;10.01;70.51;101492.34;4990161;28;20034;-75
2021/11/21 11:04:17;;;;;;;10.30;3.35;;;;;;;9.78;72.57;101496.78;4989321;28;20165;-75
2021/11/21 11:06:43;;;;;;;10.30;2.30;;;;;;;9.38;72.23;101494.50;4989149;28;20118;-73
2021/11/21 11:09:26;;;;;;;8.70;2.22;;;;;;;9.15;72.77;101499.69;4989324;28;20181;-75
2021/11/21 11:11:52;;;;;;;17.90;2.05;;;;;;;9.15;72.81;101497.03;4991495;28;20042;-73
2021/11/21 11:14:19;;;;;;;13.32;1.80;;;;;;;9.34;73.09;101496.53;4993086;28;20046;-75
2021/11/21 11:16:46;;;;;;;12.88;3.25;;;;;;;9.43;73.01;101490.53;4992852;28;20062;-73
2021/11/21 11:19:14;;;;;;;10.35;1.67;;;;;;;9.47;71.65;101493.81;5003024;28;20037;-75
2021/11/21 11:21:41;;;;;;;13.13;1.88;;;;;;;9.67;70.39;101497.59;5011858;28;20069;-73